Time;durP1;ratioP1;P1;durP2;ratioP2;P2;SDS_P1;SDS_P2;PMS_P1;PMS_P2;Temp;Humidity;BMP_temperature;BMP_pressure;BME280_temperature;BME280_humidity;BME280_pressure;Samples;Min_cycle;Max_cycle;Signal;HPM_P1;HPM_P2
2021/09/02 00:01:47;;;;;;;22.00;13.47;;;;;;;;;;5052872;28;20441;-71
2021/09/02 00:04:14;;;;;;;21.77;15.17;;;;;;;;;;5052851;28;20444;-71
2021/09/02 00:06:43;;;;;;;24.93;15.27;;;;;;;;;;5052870;28;20449;-71
2021/09/02 00:09:10;;;;;;;20.27;14.60;;;;;;;;;;5053421;28;20437;-70
2021/09/02 00:11:37;;;;;;;24.40;14.77;;;;;;;;;;5053014;28;20950;-71
2021/09/02 00:14:04;;;;;;;22.40;14.43;;;;;;;;;;5053119;28;20440;-70
2021/09/02 00:16:31;;;;;;;20.70;15.67;;;;;;;;;;5052748;28;20452;-70
2021/09/02 00:18:59;;;;;;;22.97;13.70;;;;;;;;;;5052654;28;20453;-71
2021/09/02 00:21:26;;;;;;;21.90;13.97;;;;;;;;;;5053028;28;20441;-70
2021/09/02 00:23:54;;;;;;;20.97;16.50;;;;;;;;;;5052971;28;20446;-70
2021/09/02 00:26:22;;;;;;;25.13;15.90;;;;;;;;;;5052980;28;20484;-70
2021/09/02 00:28:49;;;;;;;27.93;15.33;;;;;;;;;;5052933;28;20480;-71
2021/09/02 00:31:16;;;;;;;22.40;15.40;;;;;;;;;;5053315;28;20441;-70
2021/09/02 00:33:43;;;;;;;22.97;15.90;;;;;;;;;;5053364;28;20476;-71
2021/09/02 00:36:10;;;;;;;23.30;16.10;;;;;;;;;;5052887;28;20445;-73
2021/09/02 00:38:38;;;;;;;24.77;15.73;;;;;;;;;;5052842;28;20449;-73
2021/09/02 00:41:07;;;;;;;18.33;14.73;;;;;;;;;;5052510;28;20461;-72
2021/09/02 00:43:44;;;;;;;21.23;15.27;;;;;;;;;;5053227;28;20453;-72
2021/09/02 00:46:12;;;;;;;18.03;14.70;;;;;;;;;;5054730;28;20431;-72
2021/09/02 00:48:39;;;;;;;21.53;16.93;;;;;;;;;;5056058;28;20485;-72
2021/09/02 00:51:06;;;;;;;27.80;15.13;;;;;;;;;;5056575;28;20433;-72
2021/09/02 00:53:33;;;;;;;22.10;15.23;;;;;;;;;;5056261;28;20477;-72
2021/09/02 00:56:01;;;;;;;22.17;14.20;;;;;;;;;;5056041;28;20448;-71
2021/09/02 00:58:29;;;;;;;27.23;15.57;;;;;;;;;;5055942;28;20963;-72
2021/09/02 01:00:57;;;;;;;20.60;15.00;;;;;;;;;;5055830;28;20436;-72
2021/09/02 01:03:24;;;;;;;22.97;14.67;;;;;;;;;;5055821;28;20965;-73
2021/09/02 01:05:53;;;;;;;28.37;16.67;;;;;;;;;;5056086;28;20449;-72
2021/09/02 01:08:20;;;;;;;24.60;15.53;;;;;;;;;;5056098;28;20444;-72
2021/09/02 01:10:49;;;;;;;21.30;15.93;;;;;;;;;;5056491;28;20447;-72
2021/09/02 01:13:16;;;;;;;25.33;16.60;;;;;;;;;;5055876;28;20477;-72
2021/09/02 01:15:45;;;;;;;24.63;14.97;;;;;;;;;;5055911;28;20451;-72
2021/09/02 01:18:12;;;;;;;22.73;15.00;;;;;;;;;;5056510;28;20471;-71
2021/09/02 01:20:39;;;;;;;22.20;16.23;;;;;;;;;;5055797;28;20441;-73
2021/09/02 01:23:07;;;;;;;19.80;14.17;;;;;;;;;;5055481;28;20463;-72
2021/09/02 01:25:40;;;;;;;24.73;15.97;;;;;;;;;;5055782;28;20450;-72
2021/09/02 01:28:08;;;;;;;31.07;15.93;;;;;;;;;;5055376;28;20436;-72
2021/09/02 01:30:37;;;;;;;29.50;16.03;;;;;;;;;;5055327;28;20452;-71
2021/09/02 01:33:04;;;;;;;21.47;15.90;;;;;;;;;;5055543;28;20485;-71
2021/09/02 01:35:32;;;;;;;27.43;16.20;;;;;;;;;;5055272;28;20936;-71
2021/09/02 01:38:00;;;;;;;26.73;15.17;;;;;;;;;;5055963;28;20445;-72
2021/09/02 01:40:29;;;;;;;25.00;15.10;;;;;;;;;;5055154;28;20445;-72
2021/09/02 01:42:57;;;;;;;26.90;16.53;;;;;;;;;;5055468;28;20471;-72
2021/09/02 01:45:25;;;;;;;24.57;15.80;;;;;;;;;;5055386;28;20442;-72
2021/09/02 01:47:52;;;;;;;19.60;15.80;;;;;;;;;;5055046;28;20446;-72
2021/09/02 01:50:21;;;;;;;28.00;16.60;;;;;;;;;;5055529;28;20465;-73
2021/09/02 01:52:49;;;;;;;27.80;16.23;;;;;;;;;;5055411;28;20492;-72
2021/09/02 01:55:17;;;;;;;23.80;15.73;;;;;;;;;;5054848;28;20452;-73
2021/09/02 01:57:44;;;;;;;25.40;17.20;;;;;;;;;;5054828;28;20437;-73
2021/09/02 02:00:13;;;;;;;33.33;16.97;;;;;;;;;;5054782;28;20437;-71
2021/09/02 02:02:41;;;;;;;28.20;17.03;;;;;;;;;;5055031;28;20475;-72
2021/09/02 02:05:09;;;;;;;24.27;15.33;;;;;;;;;;5054965;28;20442;-71
2021/09/02 02:07:36;;;;;;;24.90;16.30;;;;;;;;;;5054607;28;20940;-71
2021/09/02 02:10:04;;;;;;;24.70;15.87;;;;;;;;;;5054604;28;20445;-73
2021/09/02 02:12:31;;;;;;;26.67;17.30;;;;;;;;;;5055162;28;20442;-72
2021/09/02 02:14:58;;;;;;;25.83;17.30;;;;;;;;;;5055112;28;20445;-71
2021/09/02 02:17:27;;;;;;;28.10;17.33;;;;;;;;;;5054436;28;20452;-73
2021/09/02 02:19:54;;;;;;;24.97;17.20;;;;;;;;;;5054357;28;20441;-73
2021/09/02 02:22:21;;;;;;;24.73;15.93;;;;;;;;;;5054290;28;20449;-71
2021/09/02 02:24:48;;;;;;;25.40;16.37;;;;;;;;;;5054325;28;20442;-72
2021/09/02 02:27:15;;;;;;;25.40;16.80;;;;;;;;;;5054271;28;20453;-71
2021/09/02 02:29:43;;;;;;;25.17;17.63;;;;;;;;;;5054248;28;20446;-72
2021/09/02 02:32:10;;;;;;;29.83;16.83;;;;;;;;;;5054112;28;20441;-72
2021/09/02 02:34:38;;;;;;;27.97;16.10;;;;;;;;;;5053947;28;20480;-71
2021/09/02 02:37:06;;;;;;;27.47;16.77;;;;;;;;;;5054412;28;20442;-73
2021/09/02 02:39:37;;;;;;;27.23;17.47;;;;;;;;;;5054057;28;20449;-72
2021/09/02 02:42:05;;;;;;;29.70;17.00;;;;;;;;;;5054416;28;20424;-72
2021/09/02 02:44:32;;;;;;;26.33;17.80;;;;;;;;;;5055111;28;20528;-72
2021/09/02 02:46:59;;;;;;;34.40;20.97;;;;;;;;;;5054269;28;20433;-72
2021/09/02 02:49:26;;;;;;;35.97;19.77;;;;;;;;;;5054331;28;20470;-73
2021/09/02 02:51:55;;;;;;;29.73;17.77;;;;;;;;;;5054249;28;20441;-73
2021/09/02 02:54:22;;;;;;;28.50;16.67;;;;;;;;;;5053979;28;20484;-73
2021/09/02 02:56:50;;;;;;;29.80;16.97;;;;;;;;;;5054333;28;20441;-72
2021/09/02 02:59:17;;;;;;;25.43;17.00;;;;;;;;;;5054395;28;20440;-72
2021/09/02 03:01:44;;;;;;;27.97;18.37;;;;;;;;;;5053962;28;20529;-73
2021/09/02 03:04:11;;;;;;;25.20;16.83;;;;;;;;;;5054205;28;20445;-72
2021/09/02 03:06:38;;;;;;;30.27;16.90;;;;;;;;;;5053887;28;20441;-72
2021/09/02 03:09:07;;;;;;;29.10;18.30;;;;;;;;;;5053433;28;20450;-72
2021/09/02 03:11:35;;;;;;;26.37;18.27;;;;;;;;;;5053511;28;20452;-72
2021/09/02 03:14:02;;;;;;;32.63;18.07;;;;;;;;;;5053698;28;20499;-72
2021/09/02 03:16:29;;;;;;;31.73;17.90;;;;;;;;;;5053418;28;20441;-71
2021/09/02 03:18:57;;;;;;;30.80;18.20;;;;;;;;;;5053894;28;20800;-72
2021/09/02 03:21:24;;;;;;;27.23;19.67;;;;;;;;;;5053654;28;20445;-72
2021/09/02 03:23:51;;;;;;;24.47;17.00;;;;;;;;;;5054342;28;20680;-72
2021/09/02 03:26:19;;;;;;;29.50;18.57;;;;;;;;;;5054427;28;20437;-72
2021/09/02 03:28:47;;;;;;;28.00;19.30;;;;;;;;;;5053328;28;20793;-72
2021/09/02 03:31:14;;;;;;;34.57;20.40;;;;;;;;;;5053211;28;20936;-72
2021/09/02 03:33:41;;;;;;;30.30;18.67;;;;;;;;;;5053111;28;20473;-72
2021/09/02 03:36:08;;;;;;;34.80;21.87;;;;;;;;;;5053705;28;20445;-72
2021/09/02 03:38:35;;;;;;;29.60;18.80;;;;;;;;;;5053393;28;20447;-72
2021/09/02 03:41:03;;;;;;;33.20;19.20;;;;;;;;;;5053130;28;20954;-73
2021/09/02 03:43:31;;;;;;;30.90;18.93;;;;;;;;;;5053389;28;20452;-72
2021/09/02 03:45:59;;;;;;;35.80;19.80;;;;;;;;;;5053335;28;20455;-72
2021/09/02 03:48:26;;;;;;;33.50;19.90;;;;;;;;;;5053056;28;20469;-73
2021/09/02 03:50:53;;;;;;;41.13;22.70;;;;;;;;;;5053736;28;20428;-73
2021/09/02 03:53:20;;;;;;;35.47;21.13;;;;;;;;;;5053219;28;20480;-73
2021/09/02 03:55:47;;;;;;;29.93;20.10;;;;;;;;;;5053626;28;20448;-72
2021/09/02 03:58:14;;;;;;;31.10;19.90;;;;;;;;;;5053576;28;20440;-72
2021/09/02 04:00:43;;;;;;;41.40;21.37;;;;;;;;;;5053214;28;20445;-72
2021/09/02 04:03:10;;;;;;;36.47;21.30;;;;;;;;;;5053455;28;20928;-72
2021/09/02 04:05:37;;;;;;;35.53;20.63;;;;;;;;;;5053390;28;20496;-72
2021/09/02 04:08:05;;;;;;;32.30;20.17;;;;;;;;;;5053303;28;20446;-72
2021/09/02 04:10:32;;;;;;;31.47;19.30;;;;;;;;;;5053169;28;20437;-71
2021/09/02 04:12:59;;;;;;;25.43;17.27;;;;;;;;;;5052659;28;20449;-72
2021/09/02 04:15:26;;;;;;;31.50;20.30;;;;;;;;;;5053073;28;20448;-72
2021/09/02 04:17:55;;;;;;;30.93;21.40;;;;;;;;;;5052652;28;20445;-72
2021/09/02 04:20:22;;;;;;;33.10;19.63;;;;;;;;;;5053017;28;20456;-72
2021/09/02 04:22:49;;;;;;;29.57;20.13;;;;;;;;;;5056801;28;20437;-71
2021/09/02 04:25:16;;;;;;;31.73;19.40;;;;;;;;;;5074754;28;20444;-71
2021/09/02 04:27:46;;;;;;;29.53;20.43;;;;;;;;;;5075758;28;20523;-71
2021/09/02 04:30:14;;;;;;;29.77;18.57;;;;;;;;;;5075509;28;20538;-72
2021/09/02 04:32:41;;;;;;;30.50;19.57;;;;;;;;;;5075575;28;20443;-72
2021/09/02 04:35:11;;;;;;;33.83;19.20;;;;;;;;;;5075540;28;20475;-71
2021/09/02 04:37:39;;;;;;;29.07;16.90;;;;;;;;;;5075544;28;20445;-72
2021/09/02 04:40:07;;;;;;;30.37;19.23;;;;;;;;;;5074954;28;20738;-72
2021/09/02 04:42:34;;;;;;;32.90;19.40;;;;;;;;;;5076000;28;20447;-72
2021/09/02 04:45:01;;;;;;;28.10;19.10;;;;;;;;;;5076022;28;20443;-72
2021/09/02 04:47:29;;;;;;;33.63;19.67;;;;;;;;;;5075253;28;20436;-72
2021/09/02 04:49:56;;;;;;;28.63;18.40;;;;;;;;;;5074894;28;20960;-72
2021/09/02 04:52:25;;;;;;;33.40;20.27;;;;;;;;;;5076091;28;20435;-72
2021/09/02 04:54:52;;;;;;;29.90;18.10;;;;;;;;;;5083889;28;20849;-71
2021/09/02 04:57:20;;;;;;;38.60;18.97;;;;;;;;;;5096505;28;20447;-72
2021/09/02 04:59:47;;;;;;;28.47;18.97;;;;;;;;;;5096294;28;20850;-72
2021/09/02 05:02:15;;;;;;;30.67;19.37;;;;;;;;;;5096606;28;20435;-72
2021/09/02 05:04:42;;;;;;;26.00;17.30;;;;;;;;;;5096257;28;20440;-73
2021/09/02 05:07:09;;;;;;;29.80;17.97;;;;;;;;;;5096499;28;20783;-72
2021/09/02 05:09:38;;;;;;;29.57;18.93;;;;;;;;;;5096089;28;20440;-72
2021/09/02 05:12:05;;;;;;;31.60;18.87;;;;;;;;;;5096357;28;20964;-72
2021/09/02 05:14:32;;;;;;;28.53;18.73;;;;;;;;;;5096128;28;20475;-72
2021/09/02 05:16:59;;;;;;;30.83;19.60;;;;;;;;;;5095495;28;20435;-72
2021/09/02 05:19:27;;;;;;;30.80;19.20;;;;;;;;;;5096448;28;20455;-70
2021/09/02 05:21:54;;;;;;;32.90;20.30;;;;;;;;;;5096078;28;20440;-70
2021/09/02 05:24:21;;;;;;;26.20;18.90;;;;;;;;;;5096145;28;20450;-70
2021/09/02 05:26:50;;;;;;;32.83;19.50;;;;;;;;;;5096094;28;20440;-75
2021/09/02 05:29:17;;;;;;;27.17;17.67;;;;;;;;;;5095609;28;20926;-76
2021/09/02 05:31:44;;;;;;;28.67;19.97;;;;;;;;;;5095604;28;20955;-73
2021/09/02 05:34:11;;;;;;;31.80;20.20;;;;;;;;;;5095684;28;20482;-74
2021/09/02 05:36:38;;;;;;;26.50;18.40;;;;;;;;;;5095838;28;20428;-73
2021/09/02 05:39:06;;;;;;;30.40;18.07;;;;;;;;;;5095631;28;20461;-73
2021/09/02 05:41:33;;;;;;;25.97;19.03;;;;;;;;;;5095610;28;20526;-73
2021/09/02 05:44:02;;;;;;;26.53;17.13;;;;;;;;;;5095354;28;20534;-74
2021/09/02 05:46:29;;;;;;;22.33;17.27;;;;;;;;;;5095708;28;20792;-73
2021/09/02 05:48:56;;;;;;;32.00;17.17;;;;;;;;;;5095307;28;20497;-73
2021/09/02 05:51:23;;;;;;;27.93;17.63;;;;;;;;;;5095563;28;20447;-73
2021/09/02 05:53:50;;;;;;;29.10;18.30;;;;;;;;;;5094979;28;20490;-73
2021/09/02 05:56:18;;;;;;;32.37;18.90;;;;;;;;;;5095492;28;20454;-73
2021/09/02 05:58:45;;;;;;;25.93;18.00;;;;;;;;;;5096135;28;20448;-73
2021/09/02 06:01:15;;;;;;;29.30;18.83;;;;;;;;;;5095262;28;20450;-73
2021/09/02 06:03:42;;;;;;;25.90;17.40;;;;;;;;;;5094964;28;20434;-73
2021/09/02 06:06:10;;;;;;;28.23;17.87;;;;;;;;;;5094605;28;20450;-74
2021/09/02 06:08:37;;;;;;;25.73;17.80;;;;;;;;;;5094941;28;20442;-73
2021/09/02 06:11:05;;;;;;;25.90;18.17;;;;;;;;;;5095054;28;20437;-73
2021/09/02 06:13:32;;;;;;;27.57;20.47;;;;;;;;;;5094777;28;20440;-73
2021/09/02 06:15:59;;;;;;;26.50;18.90;;;;;;;;;;5094888;28;20848;-73
2021/09/02 06:18:28;;;;;;;25.37;17.03;;;;;;;;;;5095477;28;20454;-73
2021/09/02 06:20:55;;;;;;;24.70;18.50;;;;;;;;;;5094623;28;20446;-73
2021/09/02 06:23:22;;;;;;;18.40;15.43;;;;;;;;;;5094591;28;20926;-74
2021/09/02 06:25:49;;;;;;;23.10;15.40;;;;;;;;;;5094838;28;20532;-74
2021/09/02 06:28:17;;;;;;;22.90;17.23;;;;;;;;;;5094709;28;20470;-74
2021/09/02 06:30:44;;;;;;;25.20;15.40;;;;;;;;;;5094442;28;20449;-74
2021/09/02 06:33:12;;;;;;;30.27;16.63;;;;;;;;;;5094379;28;20440;-74
2021/09/02 06:35:40;;;;;;;25.70;17.00;;;;;;;;;;5094593;28;20479;-74
2021/09/02 06:38:08;;;;;;;23.50;17.13;;;;;;;;;;5094239;28;20922;-74
2021/09/02 06:40:35;;;;;;;31.70;17.03;;;;;;;;;;5094588;28;20457;-73
2021/09/02 06:43:02;;;;;;;20.77;17.23;;;;;;;;;;5094564;28;20450;-73
2021/09/02 06:45:30;;;;;;;32.07;17.23;;;;;;;;;;5093942;28;20801;-74
2021/09/02 06:47:57;;;;;;;22.23;15.50;;;;;;;;;;5094302;28;20444;-74
2021/09/02 06:50:24;;;;;;;28.20;19.00;;;;;;;;;;5093785;28;20552;-73
2021/09/02 06:52:54;;;;;;;23.30;15.97;;;;;;;;;;5094257;28;20444;-74
2021/09/02 06:55:21;;;;;;;25.97;17.97;;;;;;;;;;5094379;28;20476;-74
2021/09/02 06:57:48;;;;;;;25.43;16.80;;;;;;;;;;5094186;28;20442;-74
2021/09/02 07:00:16;;;;;;;30.00;16.90;;;;;;;;;;5094694;28;20437;-73
2021/09/02 07:02:43;;;;;;;22.33;15.97;;;;;;;;;;5094541;28;20447;-73
2021/09/02 07:05:10;;;;;;;24.43;17.67;;;;;;;;;;5094342;28;20952;-74
2021/09/02 07:07:38;;;;;;;26.80;18.33;;;;;;;;;;5093763;28;20531;-73
2021/09/02 07:10:07;;;;;;;30.87;20.83;;;;;;;;;;5094527;28;20621;-74
2021/09/02 07:12:34;;;;;;;25.77;19.23;;;;;;;;;;5093593;28;20516;-73
2021/09/02 07:15:02;;;;;;;32.67;17.77;;;;;;;;;;5093470;28;20467;-73
2021/09/02 07:17:29;;;;;;;32.07;19.50;;;;;;;;;;5093912;28;20789;-74
2021/09/02 07:19:57;;;;;;;25.73;18.30;;;;;;;;;;5093537;28;20446;-74
2021/09/02 07:22:24;;;;;;;36.97;19.43;;;;;;;;;;5093778;28;20514;-74
2021/09/02 07:24:51;;;;;;;29.37;18.60;;;;;;;;;;5093439;28;20948;-73
2021/09/02 07:27:20;;;;;;;25.07;19.03;;;;;;;;;;5093297;28;20936;-74
2021/09/02 07:29:47;;;;;;;25.20;19.87;;;;;;;;;;5093805;28;20451;-74
2021/09/02 07:32:14;;;;;;;32.13;20.00;;;;;;;;;;5093649;28;20451;-74
2021/09/02 07:34:43;;;;;;;26.50;18.27;;;;;;;;;;5093231;28;20566;-73
2021/09/02 07:37:10;;;;;;;24.00;17.27;;;;;;;;;;5094099;28;20455;-73
2021/09/02 07:39:38;;;;;;;26.63;17.93;;;;;;;;;;5093246;28;20954;-73
2021/09/02 07:42:05;;;;;;;25.50;17.90;;;;;;;;;;5093925;28;20444;-73
2021/09/02 07:44:34;;;;;;;26.67;19.87;;;;;;;;;;5093267;28;20535;-74
2021/09/02 07:47:01;;;;;;;29.00;19.70;;;;;;;;;;5093736;28;20530;-74
2021/09/02 07:49:28;;;;;;;38.10;21.73;;;;;;;;;;5093547;28;20563;-74
2021/09/02 07:51:56;;;;;;;31.90;21.40;;;;;;;;;;5093508;28;20532;-74
2021/09/02 07:54:23;;;;;;;26.23;19.43;;;;;;;;;;5093669;28;20472;-74
2021/09/02 07:56:50;;;;;;;32.03;18.93;;;;;;;;;;5097208;28;20447;-73
2021/09/02 07:59:17;;;;;;;32.33;20.23;;;;;;;;;;5097596;28;20445;-73
2021/09/02 08:01:46;;;;;;;31.67;21.43;;;;;;;;;;5097626;28;20480;-74
2021/09/02 08:04:13;;;;;;;42.90;21.83;;;;;;;;;;5097632;28;20444;-74
2021/09/02 08:06:40;;;;;;;32.83;22.20;;;;;;;;;;5097781;28;20437;-74
2021/09/02 08:09:07;;;;;;;34.93;20.17;;;;;;;;;;5097094;28;20444;-74
2021/09/02 08:11:35;;;;;;;29.33;20.03;;;;;;;;;;5097382;28;20436;-74
2021/09/02 08:14:02;;;;;;;32.70;19.57;;;;;;;;;;5097927;28;20457;-74
2021/09/02 08:16:29;;;;;;;27.20;19.67;;;;;;;;;;5097263;28;20480;-74
2021/09/02 08:18:58;;;;;;;36.67;20.93;;;;;;;;;;5097352;28;20448;-74
2021/09/02 08:21:26;;;;;;;35.47;19.80;;;;;;;;;;5097227;28;20834;-74
2021/09/02 08:23:59;;;;;;;29.13;19.00;;;;;;;;;;5097281;28;20442;-74
2021/09/02 08:26:27;;;;;;;30.03;18.83;;;;;;;;;;5097235;28;20425;-74
2021/09/02 08:28:54;;;;;;;30.80;18.37;;;;;;;;;;5097116;28;20980;-73
2021/09/02 08:31:21;;;;;;;27.67;18.23;;;;;;;;;;5097239;28;20432;-74
2021/09/02 08:33:48;;;;;;;32.90;18.10;;;;;;;;;;5097025;28;20795;-73
2021/09/02 08:36:17;;;;;;;28.87;17.67;;;;;;;;;;5096831;28;20483;-74
2021/09/02 08:38:47;;;;;;;24.57;18.53;;;;;;;;;;5096799;28;20931;-73
2021/09/02 08:41:15;;;;;;;31.50;17.93;;;;;;;;;;5096606;28;20441;-73
2021/09/02 08:43:43;;;;;;;29.67;19.10;;;;;;;;;;5096418;28;20435;-74
2021/09/02 08:46:10;;;;;;;25.03;17.27;;;;;;;;;;5096756;28;20482;-74
2021/09/02 08:48:39;;;;;;;27.07;17.97;;;;;;;;;;5096426;28;20981;-73
2021/09/02 08:51:07;;;;;;;29.90;19.17;;;;;;;;;;5096931;28;20438;-74
2021/09/02 08:53:35;;;;;;;25.43;17.23;;;;;;;;;;5096286;28;20443;-73
2021/09/02 08:56:02;;;;;;;27.97;17.47;;;;;;;;;;5096528;28;20485;-73
2021/09/02 08:58:31;;;;;;;23.83;15.60;;;;;;;;;;5096582;28;20448;-74
2021/09/02 09:01:05;;;;;;;28.70;16.73;;;;;;;;;;5096556;28;20522;-73
2021/09/02 09:03:34;;;;;;;31.90;17.90;;;;;;;;;;5096184;28;20484;-74
2021/09/02 09:06:06;;;;;;;28.93;16.90;;;;;;;;;;5096450;28;20460;-74
2021/09/02 09:08:35;;;;;;;25.00;16.93;;;;;;;;;;5096132;28;20494;-73
2021/09/02 09:11:17;;;;;;;28.73;18.10;;;;;;;;;;5096317;28;20446;-73
2021/09/02 09:13:45;;;;;;;24.97;17.63;;;;;;;;;;5096607;28;20432;-74
2021/09/02 09:16:12;;;;;;;23.63;17.67;;;;;;;;;;5095841;28;20478;-73
2021/09/02 09:18:44;;;;;;;28.33;18.40;;;;;;;;;;5096258;28;20451;-73
2021/09/02 09:21:12;;;;;;;26.70;17.87;;;;;;;;;;5096082;28;20483;-73
2021/09/02 09:23:51;;;;;;;28.50;18.40;;;;;;;;;;5096021;28;20558;-74
2021/09/02 09:26:19;;;;;;;29.40;16.10;;;;;;;;;;5095981;28;20451;-74
2021/09/02 09:28:46;;;;;;;26.00;16.50;;;;;;;;;;5095860;28;20452;-74
2021/09/02 09:31:24;;;;;;;25.20;17.70;;;;;;;;;;5095930;28;20440;-74
2021/09/02 09:33:52;;;;;;;24.30;16.90;;;;;;;;;;5095597;28;20429;-72
2021/09/02 09:36:22;;;;;;;27.10;16.17;;;;;;;;;;5095475;28;20491;-72
2021/09/02 09:38:57;;;;;;;26.17;16.80;;;;;;;;;;5095453;28;20924;-72
2021/09/02 09:41:32;;;;;;;25.50;15.40;;;;;;;;;;5095920;28;20436;-74
2021/09/02 09:44:14;;;;;;;18.57;14.77;;;;;;;;;;5095942;28;20420;-74
2021/09/02 09:46:41;;;;;;;28.70;16.10;;;;;;;;;;5095805;28;20519;-74
2021/09/02 09:49:08;;;;;;;19.07;14.80;;;;;;;;;;5095332;28;20475;-74
2021/09/02 09:51:36;;;;;;;51.27;27.27;;;;;;;;;;5095181;28;20437;-73
2021/09/02 09:54:03;;;;;;;23.87;16.00;;;;;;;;;;5095176;28;20445;-73
2021/09/02 09:56:30;;;;;;;29.03;17.73;;;;;;;;;;5094903;28;20477;-73
2021/09/02 09:58:59;;;;;;;27.23;15.80;;;;;;;;;;5094946;28;20528;-73
2021/09/02 10:01:27;;;;;;;26.93;17.63;;;;;;;;;;5094949;28;20436;-73
2021/09/02 10:03:55;;;;;;;26.20;16.20;;;;;;;;;;5094948;28;20441;-74
2021/09/02 10:06:23;;;;;;;26.47;17.60;;;;;;;;;;5095359;28;20451;-73
2021/09/02 10:08:50;;;;;;;25.50;15.50;;;;;;;;;;5094886;28;20486;-73
2021/09/02 10:11:18;;;;;;;25.90;15.70;;;;;;;;;;5094709;28;20453;-73
2021/09/02 10:13:46;;;;;;;28.07;16.53;;;;;;;;;;5095049;28;20441;-74
2021/09/02 10:16:14;;;;;;;32.40;15.37;;;;;;;;;;5094624;28;20511;-74
2021/09/02 10:18:43;;;;;;;26.40;15.40;;;;;;;;;;5093698;28;20797;-73
2021/09/02 10:21:11;;;;;;;28.77;16.67;;;;;;;;;;5094562;28;20452;-74
2021/09/02 10:23:38;;;;;;;32.57;19.80;;;;;;;;;;5095174;28;20445;-73
2021/09/02 10:26:06;;;;;;;20.27;15.47;;;;;;;;;;5094842;28;20535;-74
2021/09/02 10:28:34;;;;;;;22.77;15.60;;;;;;;;;;5094849;28;20437;-73
2021/09/02 10:31:02;;;;;;;24.10;15.50;;;;;;;;;;5094474;28;20441;-74
2021/09/02 10:33:41;;;;;;;24.07;16.60;;;;;;;;;;5094544;28;20444;-73
2021/09/02 10:36:27;;;;;;;24.03;16.40;;;;;;;;;;5094650;28;20474;-73
2021/09/02 10:38:59;;;;;;;25.27;16.23;;;;;;;;;;5094289;28;20936;-74
2021/09/02 10:41:43;;;;;;;22.80;15.77;;;;;;;;;;5094974;28;20776;-73
2021/09/02 10:44:11;;;;;;;24.23;15.80;;;;;;;;;;5095249;28;20424;-73
2021/09/02 10:46:39;;;;;;;23.00;15.93;;;;;;;;;;5094075;28;20445;-73
2021/09/02 10:49:14;;;;;;;22.03;15.73;;;;;;;;;;5094168;28;20483;-73
2021/09/02 10:51:42;;;;;;;21.10;16.20;;;;;;;;;;5094629;28;20440;-73
2021/09/02 10:54:10;;;;;;;24.50;15.17;;;;;;;;;;5094617;28;20441;-73
2021/09/02 10:56:52;;;;;;;23.40;16.97;;;;;;;;;;5094340;28;20483;-73
2021/09/02 10:59:34;;;;;;;22.47;16.73;;;;;;;;;;5094477;28;20504;-74
2021/09/02 11:02:02;;;;;;;22.17;15.43;;;;;;;;;;5094160;28;20479;-74
2021/09/02 11:04:30;;;;;;;24.07;14.70;;;;;;;;;;5094069;28;20450;-73
2021/09/02 11:06:57;;;;;;;23.50;13.93;;;;;;;;;;5094023;28;20541;-73
2021/09/02 11:09:32;;;;;;;25.87;16.37;;;;;;;;;;5094547;28;20453;-74
2021/09/02 11:11:59;;;;;;;24.10;15.17;;;;;;;;;;5093747;28;20442;-73
2021/09/02 11:14:27;;;;;;;22.83;15.67;;;;;;;;;;5093910;28;20446;-73
2021/09/02 11:16:54;;;;;;;22.87;15.73;;;;;;;;;;5093428;28;20472;-73
2021/09/02 11:19:32;;;;;;;19.73;13.93;;;;;;;;;;5093533;28;20451;-73
2021/09/02 11:22:06;;;;;;;24.97;16.10;;;;;;;;;;5094227;28;20520;-74
2021/09/02 11:24:37;;;;;;;24.80;17.33;;;;;;;;;;5094508;28;20420;-73
2021/09/02 11:27:04;;;;;;;22.03;17.60;;;;;;;;;;5093549;28;20911;-73
2021/09/02 11:29:31;;;;;;;19.17;16.40;;;;;;;;;;5093566;28;20922;-73
2021/09/02 11:31:59;;;;;;;21.07;17.80;;;;;;;;;;5093658;28;20808;-73
2021/09/02 11:34:27;;;;;;;28.33;16.20;;;;;;;;;;5093386;28;20444;-74
2021/09/02 11:36:55;;;;;;;23.50;15.30;;;;;;;;;;5093302;28;21074;-73
2021/09/02 11:39:27;;;;;;;27.00;15.10;;;;;;;;;;5093793;28;20439;-73
2021/09/02 11:41:59;;;;;;;22.60;18.30;;;;;;;;;;5094234;28;20796;-73
2021/09/02 11:44:26;;;;;;;23.83;17.83;;;;;;;;;;5094408;28;20431;-73
2021/09/02 11:46:53;;;;;;;28.50;18.70;;;;;;;;;;5093731;28;20449;-73
2021/09/02 11:49:21;;;;;;;27.73;17.60;;;;;;;;;;5093592;28;20507;-73
2021/09/02 11:51:57;;;;;;;21.13;16.60;;;;;;;;;;5093549;28;20874;-73
2021/09/02 11:54:25;;;;;;;23.40;17.13;;;;;;;;;;5093312;28;20904;-73
2021/09/02 11:56:52;;;;;;;22.50;17.73;;;;;;;;;;5093355;28;20482;-73
2021/09/02 11:59:19;;;;;;;24.43;19.73;;;;;;;;;;5093070;28;20927;-73
2021/09/02 12:01:47;;;;;;;24.60;17.07;;;;;;;;;;5093959;28;20844;-73
2021/09/02 12:04:21;;;;;;;17.30;15.43;;;;;;;;;;5093399;28;20535;-73
2021/09/02 12:06:49;;;;;;;22.77;16.83;;;;;;;;;;5093557;28;20421;-73
2021/09/02 12:09:20;;;;;;;20.70;14.57;;;;;;;;;;5093345;28;20469;-73
2021/09/02 12:11:57;;;;;;;21.87;15.70;;;;;;;;;;5093120;28;20442;-73
2021/09/02 12:14:25;;;;;;;24.40;17.33;;;;;;;;;;5093770;28;20430;-73
2021/09/02 12:17:04;;;;;;;18.67;14.83;;;;;;;;;;5093593;28;20481;-73
2021/09/02 12:19:31;;;;;;;16.70;13.20;;;;;;;;;;5093421;28;20455;-73
2021/09/02 12:22:14;;;;;;;14.77;12.67;;;;;;;;;;5092832;28;21016;-73
2021/09/02 12:24:43;;;;;;;16.80;13.20;;;;;;;;;;5092734;28;21014;-73
2021/09/02 12:27:10;;;;;;;20.17;13.17;;;;;;;;;;5093163;28;20454;-73
2021/09/02 12:29:46;;;;;;;15.53;12.40;;;;;;;;;;5092823;28;20469;-73
2021/09/02 12:32:16;;;;;;;18.20;12.70;;;;;;;;;;5093434;28;20432;-73
2021/09/02 12:34:43;;;;;;;16.30;13.27;;;;;;;;;;5093325;28;20792;-73
2021/09/02 12:37:11;;;;;;;20.90;13.00;;;;;;;;;;5093062;28;20481;-73
2021/09/02 12:39:39;;;;;;;18.20;14.07;;;;;;;;;;5092926;28;20442;-73
2021/09/02 12:42:08;;;;;;;14.80;12.60;;;;;;;;;;5093617;28;20452;-73
2021/09/02 12:44:36;;;;;;;20.67;13.70;;;;;;;;;;5096444;28;20450;-73
2021/09/02 12:47:06;;;;;;;18.50;13.07;;;;;;;;;;5096343;28;20450;-73
2021/09/02 12:49:41;;;;;;;14.23;12.67;;;;;;;;;;5096699;28;20527;-73
2021/09/02 12:52:14;;;;;;;13.97;12.13;;;;;;;;;;5096380;28;20426;-73
2021/09/02 12:55:14;;;;;;;19.70;11.30;;;;;;;;;;5096773;28;20424;-73
2021/09/02 12:57:43;;;;;;;16.13;11.33;;;;;;;;;;5014122;28;20480;-72
2021/09/02 13:00:11;;;;;;;18.70;12.50;;;;;;;;;;5014443;28;20566;-73
2021/09/02 13:02:39;;;;;;;21.13;15.33;;;;;;;;;;5052374;28;20446;-72
2021/09/02 13:05:07;;;;;;;16.17;11.20;;;;;;;;;;5096968;28;20439;-73
2021/09/02 13:07:34;;;;;;;16.60;10.70;;;;;;;;;;5095854;28;20447;-73
2021/09/02 13:10:01;;;;;;;14.23;10.83;;;;;;;;;;5095908;28;20446;-73
2021/09/02 13:12:28;;;;;;;12.50;9.03;;;;;;;;;;5096228;28;20444;-74
2021/09/02 13:14:57;;;;;;;15.73;10.00;;;;;;;;;;5095797;28;20451;-74
2021/09/02 13:17:24;;;;;;;15.43;10.23;;;;;;;;;;5096007;28;20480;-73
2021/09/02 13:19:51;;;;;;;14.87;9.50;;;;;;;;;;5095649;28;20451;-73
2021/09/02 13:22:18;;;;;;;10.93;9.80;;;;;;;;;;5095974;28;20839;-73
2021/09/02 13:24:46;;;;;;;14.57;9.97;;;;;;;;;;5095669;28;20479;-73
2021/09/02 13:27:20;;;;;;;13.60;10.30;;;;;;;;;;5096009;28;20443;-72
2021/09/02 13:29:47;;;;;;;12.67;10.53;;;;;;;;;;5096183;28;20424;-72
2021/09/02 13:32:16;;;;;;;12.77;10.03;;;;;;;;;;5095984;28;20451;-71
2021/09/02 13:34:43;;;;;;;15.30;10.00;;;;;;;;;;5095869;28;20541;-72
2021/09/02 13:37:10;;;;;;;17.60;9.40;;;;;;;;;;5095490;28;20479;-70
2021/09/02 13:39:37;;;;;;;13.63;10.63;;;;;;;;;;5095485;28;20531;-71
2021/09/02 13:42:05;;;;;;;12.50;10.63;;;;;;;;;;5094147;28;20471;-71
2021/09/02 13:44:32;;;;;;;15.80;9.97;;;;;;;;;;5094153;28;20461;-71
2021/09/02 13:47:00;;;;;;;13.53;10.00;;;;;;;;;;5094366;28;20460;-71
2021/09/02 13:49:28;;;;;;;20.83;9.70;;;;;;;;;;5094822;28;20492;-71
2021/09/02 13:51:55;;;;;;;13.23;9.10;;;;;;;;;;5095083;28;20468;-71
2021/09/02 13:54:23;;;;;;;12.00;8.77;;;;;;;;;;5094575;28;20451;-71
2021/09/02 13:56:51;;;;;;;10.47;9.03;;;;;;;;;;5094530;28;20996;-71
2021/09/02 13:59:18;;;;;;;12.23;8.93;;;;;;;;;;5095014;28;20795;-72
2021/09/02 14:01:47;;;;;;;11.63;8.87;;;;;;;;;;5095599;28;20441;-71
2021/09/02 14:04:14;;;;;;;15.10;10.03;;;;;;;;;;5094690;28;20486;-72
2021/09/02 14:06:43;;;;;;;11.93;9.30;;;;;;;;;;5094652;28;20448;-72
2021/09/02 14:09:10;;;;;;;13.57;8.80;;;;;;;;;;5094466;28;20446;-72
2021/09/02 14:11:37;;;;;;;10.80;8.50;;;;;;;;;;5093097;28;21003;-72
2021/09/02 14:14:04;;;;;;;11.83;9.70;;;;;;;;;;5094533;28;20954;-72
2021/09/02 14:16:32;;;;;;;9.10;7.60;;;;;;;;;;5093774;28;20810;-70
2021/09/02 14:18:59;;;;;;;14.23;8.30;;;;;;;;;;5094997;28;20465;-79
2021/09/02 14:21:26;;;;;;;12.53;9.20;;;;;;;;;;5094937;28;20469;-75
2021/09/02 14:23:56;;;;;;;11.73;8.37;;;;;;;;;;5094287;28;20452;-74
2021/09/02 14:26:23;;;;;;;12.20;8.97;;;;;;;;;;5094866;28;20450;-74